Terminal Aerodrome Forecast
Issued by NWS Corpus Christi, TX

Current Version | Previous Version | Text Only | Print | Product List | Glossary Off
Versions: 1 2 3 4 5 6 7 8 9 10 11 12

898
FTUS44 KCRP 221732
TAFVCT
TAF
KVCT 221732Z 2218/2318 26008KT P6SM FEW035 BKN200
     FM222300 17010KT P6SM SCT250
     FM231500 18016G22KT P6SM FEW030 SCT250=

USA.gov is the U.S. government's official web portal to all federal, state and local government web resources and services.